Time;durP1;ratioP1;P1;durP2;ratioP2;P2;SDS_P1;SDS_P2;PMS_P1;PMS_P2;Temp;Humidity;BMP_temperature;BMP_pressure;BME280_temperature;BME280_humidity;BME280_pressure;Samples;Min_cycle;Max_cycle;Signal;HPM_P1;HPM_P2
2021/01/19 00:00:18;;;;;;;72.43;51.30;;;-1.50;92.40;;;;;;5015215;28;20212;-63
2021/01/19 00:02:45;;;;;;;68.87;48.63;;;-1.50;92.40;;;;;;5013706;28;20230;-63
2021/01/19 00:05:11;;;;;;;71.27;50.23;;;-1.50;92.30;;;;;;5013962;28;20231;-63
2021/01/19 00:07:38;;;;;;;83.57;55.87;;;-1.60;92.30;;;;;;5014683;28;20211;-63
2021/01/19 00:10:05;;;;;;;95.53;62.10;;;-1.60;92.30;;;;;;5013141;28;20218;-63
2021/01/19 00:12:32;;;;;;;91.50;62.37;;;-1.60;92.40;;;;;;5014767;28;20208;-63
2021/01/19 00:14:58;;;;;;;81.33;56.70;;;-1.70;92.40;;;;;;5014531;28;20208;-63
2021/01/19 00:17:25;;;;;;;82.00;59.00;;;-1.60;92.40;;;;;;5029583;28;20212;-63
2021/01/19 00:19:51;;;;;;;69.93;49.93;;;-1.60;92.40;;;;;;5014521;28;20233;-63
2021/01/19 00:22:18;;;;;;;76.93;52.27;;;-1.70;92.30;;;;;;5014054;28;20572;-63
2021/01/19 00:24:45;;;;;;;91.07;46.97;;;-1.70;92.30;;;;;;5014406;28;20211;-63
2021/01/19 00:27:11;;;;;;;83.37;52.20;;;-1.70;92.20;;;;;;5012942;28;20228;-63
2021/01/19 00:29:38;;;;;;;82.50;52.70;;;-1.70;92.10;;;;;;5014381;28;20537;-63
2021/01/19 00:32:04;;;;;;;81.70;52.73;;;-1.80;92.10;;;;;;5011992;28;20336;-63
2021/01/19 00:34:31;;;;;;;70.90;50.77;;;-1.90;92.10;;;;;;5012439;28;20215;-63
2021/01/19 00:36:58;;;;;;;70.07;51.67;;;-1.90;92.30;;;;;;5013820;28;20537;-63
2021/01/19 00:39:25;;;;;;;69.93;51.30;;;-1.90;92.30;;;;;;5013405;28;20243;-63
2021/01/19 00:41:52;;;;;;;69.83;50.60;;;-2.00;92.20;;;;;;5016598;28;20248;-63
2021/01/19 00:44:18;;;;;;;152.70;61.40;;;-1.90;92.20;;;;;;5029747;28;20208;-63
2021/01/19 00:46:45;;;;;;;125.97;59.03;;;-2.00;92.00;;;;;;5013762;28;20246;-63
2021/01/19 00:49:11;;;;;;;186.50;70.17;;;-2.00;92.10;;;;;;5014526;28;20530;-63
2021/01/19 00:51:38;;;;;;;270.33;79.90;;;-2.00;92.10;;;;;;5014307;28;20563;-63
2021/01/19 00:54:06;;;;;;;372.33;88.03;;;-1.90;92.10;;;;;;5012162;28;20226;-63
2021/01/19 00:56:40;;;;;;;419.27;96.13;;;-1.90;92.20;;;;;;5013615;28;20219;-63
2021/01/19 00:59:08;;;;;;;364.47;89.17;;;-1.80;92.10;;;;;;5014175;28;20211;-63
2021/01/19 01:01:42;;;;;;;458.30;103.50;;;-1.80;92.10;;;;;;5029094;28;20644;-63
2021/01/19 01:04:09;;;;;;;360.80;101.70;;;-1.80;92.10;;;;;;5014272;28;20215;-63
2021/01/19 01:06:36;;;;;;;271.03;95.90;;;-1.90;92.10;;;;;;5013469;28;20231;-63
2021/01/19 01:09:03;;;;;;;320.77;102.13;;;-1.90;92.20;;;;;;5013765;28;20212;-63
2021/01/19 01:11:43;;;;;;;318.80;107.17;;;-1.90;92.30;;;;;;5012400;28;20686;-63
2021/01/19 01:14:11;;;;;;;342.57;107.73;;;-1.80;92.30;;;;;;5011586;28;20607;-63
2021/01/19 01:16:39;;;;;;;421.27;118.93;;;-1.80;92.30;;;;;;5028881;28;20672;-63
2021/01/19 01:19:07;;;;;;;441.17;110.53;;;-1.80;92.40;;;;;;5012824;28;20302;-63
2021/01/19 01:21:38;;;;;;;585.90;124.10;;;-1.80;92.30;;;;;;5013350;28;20619;-63
2021/01/19 01:24:06;;;;;;;489.97;115.47;;;-1.80;92.40;;;;;;5010995;28;20210;-63
2021/01/19 01:26:34;;;;;;;518.60;121.33;;;-1.80;92.40;;;;;;5013835;28;20231;-63
2021/01/19 01:29:01;;;;;;;446.27;110.20;;;-1.80;92.50;;;;;;5013645;28;20239;-63
2021/01/19 01:31:28;;;;;;;392.33;90.43;;;-1.80;92.60;;;;;;5013591;28;20286;-63
2021/01/19 01:33:55;;;;;;;398.13;97.17;;;-1.80;92.70;;;;;;5013346;28;20203;-63
2021/01/19 01:36:21;;;;;;;331.43;87.37;;;-1.80;92.70;;;;;;5013269;28;20212;-63
2021/01/19 01:38:48;;;;;;;275.43;78.87;;;-1.80;92.70;;;;;;5012504;28;20243;-63
2021/01/19 01:41:17;;;;;;;340.90;78.03;;;-1.90;92.70;;;;;;5009711;28;20322;-63
2021/01/19 01:43:43;;;;;;;362.07;91.13;;;-1.90;92.70;;;;;;5012197;28;20216;-63
2021/01/19 01:46:12;;;;;;;304.97;85.27;;;-2.00;92.80;;;;;;5011933;28;20224;-63
2021/01/19 01:48:40;;;;;;;834.00;136.03;;;-2.00;92.80;;;;;;5008583;28;20209;-63
2021/01/19 01:51:09;;;;;;;868.20;146.30;;;-1.90;93.00;;;;;;5012538;28;20211;-63
2021/01/19 01:53:37;;;;;;;826.67;132.47;;;-1.90;93.00;;;;;;5011985;28;20204;-63
2021/01/19 01:56:06;;;;;;;524.17;103.37;;;-1.80;93.00;;;;;;5011071;28;20214;-63
2021/01/19 01:58:33;;;;;;;580.53;112.00;;;-1.80;93.00;;;;;;5012969;28;20212;-63
2021/01/19 02:01:00;;;;;;;403.60;91.23;;;-1.80;92.90;;;;;;5012342;28;20207;-63
2021/01/19 02:03:28;;;;;;;483.07;97.87;;;-1.80;92.90;;;;;;5007675;28;20694;-63
2021/01/19 02:05:55;;;;;;;282.97;80.57;;;-1.80;92.90;;;;;;5012022;28;20231;-63
2021/01/19 02:09:05;;;;;;;327.57;85.40;;;-1.80;93.00;;;;;;5011874;28;20644;-63
2021/01/19 02:11:40;;;;;;;411.63;89.97;;;-1.80;93.00;;;;;;5012064;28;20227;-63
2021/01/19 02:14:35;;;;;;;379.70;93.77;;;-1.80;93.00;;;;;;5012603;28;20208;-63
2021/01/19 02:17:27;;;;;;;645.27;114.93;;;-1.80;93.10;;;;;;5011614;28;20219;-63
2021/01/19 02:20:21;;;;;;;678.10;123.73;;;-1.80;93.10;;;;;;5012619;28;20632;-63
2021/01/19 02:23:10;;;;;;;616.47;109.27;;;-1.80;93.10;;;;;;5008775;28;20535;-63
2021/01/19 02:25:56;;;;;;;472.07;89.87;;;-1.80;93.10;;;;;;5010903;28;20228;-63
2021/01/19 02:28:31;;;;;;;485.83;98.73;;;-1.80;93.10;;;;;;5006742;28;20207;-63
2021/01/19 02:31:16;;;;;;;657.07;120.53;;;-1.90;93.20;;;;;;5013164;28;20208;-63
2021/01/19 02:34:00;;;;;;;615.67;115.43;;;-1.80;93.30;;;;;;5012702;28;20208;-63
2021/01/19 02:36:35;;;;;;;544.67;99.83;;;-1.80;93.40;;;;;;5006323;28;20639;-63
2021/01/19 02:39:04;;;;;;;514.90;90.53;;;-1.70;93.40;;;;;;5009006;28;20718;-63
2021/01/19 02:41:31;;;;;;;597.30;110.90;;;-1.80;93.40;;;;;;5011853;28;20679;-63
2021/01/19 02:44:09;;;;;;;814.47;145.40;;;-1.70;93.60;;;;;;5012271;28;20550;-63
2021/01/19 02:46:36;;;;;;;815.70;127.20;;;-1.60;93.70;;;;;;5010468;28;20686;-63
2021/01/19 02:49:03;;;;;;;976.33;161.30;;;-1.60;93.70;;;;;;5011857;28;20208;-63
2021/01/19 02:51:30;;;;;;;561.83;111.10;;;-1.60;93.60;;;;;;5012172;28;20331;-63
2021/01/19 02:53:58;;;;;;;431.97;98.43;;;-1.50;93.70;;;;;;5012447;28;20218;-63
2021/01/19 02:56:33;;;;;;;480.37;107.87;;;-1.50;93.70;;;;;;5014264;28;20208;-63
2021/01/19 02:59:27;;;;;;;454.20;102.30;;;-1.40;93.80;;;;;;5031397;28;20214;-63
2021/01/19 03:02:04;;;;;;;613.50;119.63;;;-1.30;93.90;;;;;;5013846;28;20210;-63
2021/01/19 03:04:33;;;;;;;397.53;109.90;;;-1.30;93.80;;;;;;5016420;28;20655;-63
2021/01/19 03:07:04;;;;;;;438.20;100.17;;;-1.30;93.80;;;;;;5014125;28;20579;-63
2021/01/19 03:09:34;;;;;;;617.17;123.63;;;-1.20;93.90;;;;;;5015609;28;20207;-63
2021/01/19 03:12:01;;;;;;;508.13;110.77;;;-1.10;93.90;;;;;;5015118;28;20208;-63
2021/01/19 03:14:29;;;;;;;495.57;102.93;;;-1.10;93.90;;;;;;5016037;28;20302;-63
2021/01/19 03:17:04;;;;;;;446.27;98.57;;;-1.10;93.90;;;;;;5014991;28;20204;-63
2021/01/19 03:19:35;;;;;;;461.97;90.87;;;-1.10;93.90;;;;;;5016238;28;20223;-63
2021/01/19 03:22:01;;;;;;;321.60;89.07;;;-1.10;93.80;;;;;;5015211;28;20241;-63
2021/01/19 03:24:28;;;;;;;426.47;103.33;;;-1.10;93.90;;;;;;5014838;28;20212;-63
2021/01/19 03:26:55;;;;;;;335.47;92.03;;;-1.00;93.90;;;;;;5015716;28;20234;-63
2021/01/19 03:29:22;;;;;;;334.17;93.97;;;-1.00;93.90;;;;;;5030792;28;20207;-63
2021/01/19 03:31:49;;;;;;;418.90;101.63;;;-1.00;93.90;;;;;;5015084;28;20227;-63
2021/01/19 03:34:15;;;;;;;271.23;87.10;;;-0.90;93.90;;;;;;5014725;28;20203;-63
2021/01/19 03:36:42;;;;;;;250.83;85.97;;;-0.90;93.90;;;;;;5015364;28;20212;-63
2021/01/19 03:39:08;;;;;;;379.40;102.40;;;-0.90;93.90;;;;;;5014138;28;20586;-63
2021/01/19 03:41:35;;;;;;;288.10;87.53;;;-0.90;93.90;;;;;;5015320;28;20212;-63
2021/01/19 03:44:03;;;;;;;253.60;79.93;;;-0.90;93.80;;;;;;5015432;28;20212;-63
2021/01/19 03:46:30;;;;;;;425.60;97.77;;;-0.90;93.80;;;;;;5008981;28;20236;-63
2021/01/19 03:48:58;;;;;;;611.43;116.27;;;-0.90;93.80;;;;;;5030157;28;20597;-63
2021/01/19 03:51:25;;;;;;;453.90;102.93;;;-0.90;93.80;;;;;;5012848;28;20203;-63
2021/01/19 03:53:52;;;;;;;524.03;105.33;;;-0.90;93.80;;;;;;5030399;28;20227;-63
2021/01/19 03:56:20;;;;;;;268.73;85.90;;;-0.90;93.80;;;;;;5028343;28;20211;-63
2021/01/19 03:58:47;;;;;;;285.97;90.90;;;-0.80;93.80;;;;;;5013964;28;20218;-63
2021/01/19 04:01:14;;;;;;;379.27;93.57;;;-0.80;93.80;;;;;;5025958;28;20214;-63
2021/01/19 04:03:41;;;;;;;605.63;112.80;;;-0.80;93.80;;;;;;5014386;28;20763;-63
2021/01/19 04:06:09;;;;;;;569.60;123.07;;;-0.80;93.80;;;;;;5013315;28;20547;-63
2021/01/19 04:08:36;;;;;;;641.73;127.97;;;-0.80;93.90;;;;;;5013361;28;20216;-63
2021/01/19 04:11:04;;;;;;;710.77;136.53;;;-0.80;93.80;;;;;;5015059;28;20216;-63
2021/01/19 04:13:31;;;;;;;557.40;125.43;;;-0.80;93.80;;;;;;5014417;28;20238;-63
2021/01/19 04:15:58;;;;;;;570.10;126.80;;;-0.80;93.80;;;;;;5014783;28;20208;-64
2021/01/19 04:18:25;;;;;;;397.53;104.17;;;-0.80;93.80;;;;;;5029358;28;20210;-63
2021/01/19 04:20:52;;;;;;;600.07;131.83;;;-0.80;93.70;;;;;;5013490;28;20644;-63
2021/01/19 04:23:18;;;;;;;402.77;108.27;;;-0.80;93.70;;;;;;5013673;28;20839;-63
2021/01/19 04:25:47;;;;;;;565.60;112.93;;;-0.80;93.70;;;;;;5014052;28;20250;-63
2021/01/19 04:28:13;;;;;;;296.73;94.53;;;-0.80;93.70;;;;;;5013597;28;20207;-63
2021/01/19 04:30:41;;;;;;;220.43;81.43;;;-0.80;93.70;;;;;;5007615;28;20222;-63
2021/01/19 04:33:09;;;;;;;247.93;84.20;;;-0.80;93.70;;;;;;5013971;28;20207;-63
2021/01/19 04:35:35;;;;;;;288.70;88.40;;;-0.80;93.70;;;;;;5013133;28;20208;-69
2021/01/19 04:38:02;;;;;;;325.20;92.03;;;-0.80;93.70;;;;;;5012637;28;20232;-63
2021/01/19 04:40:29;;;;;;;360.37;87.47;;;-0.80;93.70;;;;;;5013510;28;20211;-63
2021/01/19 04:42:55;;;;;;;320.40;86.93;;;-0.80;93.60;;;;;;5013529;28;20210;-63
2021/01/19 04:45:22;;;;;;;452.10;95.40;;;-0.80;93.60;;;;;;5013066;28;20204;-63
2021/01/19 04:47:52;;;;;;;414.43;93.47;;;-0.80;93.60;;;;;;5019407;28;20269;-63
2021/01/19 04:50:18;;;;;;;431.10;95.33;;;-0.90;93.60;;;;;;5012838;28;20219;-63
2021/01/19 04:52:46;;;;;;;289.03;88.30;;;-0.90;93.60;;;;;;5011757;28;20213;-63
2021/01/19 04:55:26;;;;;;;395.30;97.83;;;-0.90;93.60;;;;;;5013967;28;20216;-64
2021/01/19 04:57:58;;;;;;;336.97;93.27;;;-0.90;93.60;;;;;;5012505;28;20206;-63
2021/01/19 05:00:35;;;;;;;291.43;87.00;;;-1.00;93.60;;;;;;5013982;28;20214;-63
2021/01/19 05:03:02;;;;;;;300.30;87.57;;;-0.90;93.60;;;;;;5013258;28;20401;-63
2021/01/19 05:05:37;;;;;;;343.53;89.50;;;-0.90;93.60;;;;;;5014153;28;20231;-63
2021/01/19 05:08:17;;;;;;;250.57;87.57;;;-0.90;93.60;;;;;;5028750;28;20206;-63
2021/01/19 05:10:58;;;;;;;348.53;92.87;;;-0.90;93.50;;;;;;5011401;28;20222;-63
2021/01/19 05:13:51;;;;;;;415.57;103.50;;;-1.00;93.60;;;;;;5012596;28;20208;-63
2021/01/19 05:16:20;;;;;;;339.40;92.50;;;-1.00;93.60;;;;;;5009151;28;20550;-63
2021/01/19 05:18:48;;;;;;;419.13;98.33;;;-0.90;93.50;;;;;;5012251;28;20220;-62
2021/01/19 05:21:15;;;;;;;345.97;89.33;;;-0.90;93.50;;;;;;5005383;28;20215;-63
2021/01/19 05:23:42;;;;;;;292.20;90.03;;;-0.90;93.60;;;;;;5012270;28;20628;-63
2021/01/19 05:26:12;;;;;;;285.23;87.50;;;-0.90;93.90;;;;;;5012587;28;20227;-63
2021/01/19 05:28:41;;;;;;;434.73;95.33;;;-0.90;93.90;;;;;;5012462;28;20204;-63
2021/01/19 05:31:27;;;;;;;477.50;94.03;;;-0.90;93.40;;;;;;5012901;28;20227;-63
2021/01/19 05:33:53;;;;;;;532.63;104.70;;;-1.00;93.30;;;;;;5012681;28;20216;-63
2021/01/19 05:36:21;;;;;;;433.33;100.20;;;-1.00;93.40;;;;;;5010932;28;20557;-63
2021/01/19 05:38:56;;;;;;;396.37;94.23;;;-1.00;93.40;;;;;;5011822;28;20251;-63
2021/01/19 05:41:30;;;;;;;611.13;107.67;;;-1.00;93.60;;;;;;5004850;28;20206;-63
2021/01/19 05:44:07;;;;;;;895.67;131.53;;;-1.00;93.40;;;;;;5011966;28;20294;-63
2021/01/19 05:46:34;;;;;;;942.30;148.93;;;-1.10;93.30;;;;;;5012274;28;20231;-63
2021/01/19 05:49:02;;;;;;;521.30;101.13;;;-1.20;93.30;;;;;;5011785;28;20215;-63
2021/01/19 05:51:30;;;;;;;484.50;94.70;;;-1.30;93.30;;;;;;5011872;28;20581;-63
2021/01/19 05:53:58;;;;;;;602.83;102.73;;;-1.30;93.40;;;;;;5012484;28;20562;-63
2021/01/19 05:56:27;;;;;;;422.63;93.60;;;-1.40;93.40;;;;;;5012835;28;20204;-63
2021/01/19 05:58:53;;;;;;;354.47;89.20;;;-1.40;93.40;;;;;;5012918;28;20642;-63
2021/01/19 06:01:32;;;;;;;512.43;97.87;;;-1.40;93.60;;;;;;5012514;28;20222;-63
2021/01/19 06:04:01;;;;;;;504.30;90.70;;;-1.50;93.60;;;;;;5012732;28;20216;-63
2021/01/19 06:06:29;;;;;;;548.73;102.90;;;-1.50;93.50;;;;;;5011444;28;20597;-63
2021/01/19 06:09:04;;;;;;;456.47;91.50;;;-1.60;93.50;;;;;;5011828;28;20243;-63
2021/01/19 06:11:31;;;;;;;463.10;105.90;;;-1.60;93.50;;;;;;5011942;28;20206;-63
2021/01/19 06:13:58;;;;;;;482.03;107.37;;;-1.60;93.90;;;;;;5012159;28;20219;-63
2021/01/19 06:16:25;;;;;;;404.50;99.27;;;-1.60;93.70;;;;;;5012156;28;20211;-63
2021/01/19 06:18:53;;;;;;;372.43;93.00;;;-1.50;93.80;;;;;;5026521;28;20212;-63
2021/01/19 06:21:30;;;;;;;385.27;90.17;;;-1.50;93.70;;;;;;5005186;28;20227;-63
2021/01/19 06:23:57;;;;;;;404.27;99.83;;;-1.40;93.70;;;;;;5011694;28;20317;-63
2021/01/19 06:26:24;;;;;;;479.30;101.67;;;-1.40;93.60;;;;;;5011884;28;20233;-64
2021/01/19 06:28:50;;;;;;;775.03;138.07;;;-1.40;93.60;;;;;;5011994;28;20220;-63
2021/01/19 06:31:21;;;;;;;475.70;103.33;;;-1.40;93.60;;;;;;5014866;28;20207;-63
2021/01/19 06:33:50;;;;;;;530.20;104.47;;;-1.40;93.60;;;;;;5014533;28;20215;-63
2021/01/19 06:36:18;;;;;;;581.03;106.07;;;-1.40;93.60;;;;;;5004965;28;20215;-63
2021/01/19 06:38:49;;;;;;;480.03;95.57;;;-1.40;93.50;;;;;;5017844;28;20257;-63
2021/01/19 06:41:18;;;;;;;484.83;93.73;;;-1.50;93.80;;;;;;5009888;28;20563;-63
2021/01/19 06:43:54;;;;;;;320.53;90.83;;;-1.50;93.60;;;;;;5033655;28;20215;-63
2021/01/19 06:46:21;;;;;;;282.07;84.77;;;-1.50;93.60;;;;;;5012197;28;20241;-63
2021/01/19 06:48:47;;;;;;;440.60;101.03;;;-1.50;93.70;;;;;;5017656;28;20222;-63
2021/01/19 06:51:15;;;;;;;285.33;85.50;;;-1.40;93.80;;;;;;5004768;28;20203;-63
2021/01/19 06:53:46;;;;;;;371.20;87.60;;;-1.40;93.80;;;;;;5034351;28;20671;-63
2021/01/19 06:56:15;;;;;;;256.00;83.93;;;-1.40;93.70;;;;;;5016459;28;20207;-63
2021/01/19 06:58:54;;;;;;;225.50;79.93;;;-1.40;93.70;;;;;;5015242;28;20212;-63
2021/01/19 07:01:23;;;;;;;247.13;82.13;;;-1.30;93.70;;;;;;5016335;28;20214;-63
2021/01/19 07:04:17;;;;;;;465.20;94.60;;;-1.20;93.70;;;;;;5018839;28;20211;-63
2021/01/19 07:07:13;;;;;;;507.97;91.60;;;-1.20;93.60;;;;;;5014847;28;20246;-63
2021/01/19 07:09:49;;;;;;;445.57;89.97;;;-1.30;93.40;;;;;;5014539;28;20550;-63
2021/01/19 07:12:20;;;;;;;435.63;90.00;;;-1.40;93.40;;;;;;5026167;28;20202;-63
2021/01/19 07:15:05;;;;;;;470.47;102.30;;;-1.40;93.40;;;;;;5017256;28;20211;-63
2021/01/19 07:17:56;;;;;;;274.20;82.97;;;-1.50;93.50;;;;;;5012464;28;20211;-63
2021/01/19 07:20:30;;;;;;;300.57;86.37;;;-1.40;93.60;;;;;;5029937;28;20222;-63
2021/01/19 07:23:06;;;;;;;480.40;101.80;;;-1.40;93.60;;;;;;5018107;28;20655;-63
2021/01/19 07:25:33;;;;;;;671.93;124.47;;;-1.30;93.60;;;;;;5032934;28;20219;-63
2021/01/19 07:28:01;;;;;;;386.07;101.47;;;-1.30;93.50;;;;;;5018303;28;20239;-64
2021/01/19 07:30:28;;;;;;;354.60;92.13;;;-1.20;93.50;;;;;;5033782;28;20219;-63
2021/01/19 07:32:56;;;;;;;451.67;94.23;;;-1.20;93.60;;;;;;5016616;28;20646;-63
2021/01/19 07:35:25;;;;;;;576.67;113.10;;;-1.10;93.60;;;;;;5033621;28;20648;-63
2021/01/19 07:38:07;;;;;;;429.97;101.37;;;-1.10;93.50;;;;;;5017203;28;20334;-63
2021/01/19 07:40:44;;;;;;;474.47;101.80;;;-1.00;93.50;;;;;;5018992;28;20207;-63
2021/01/19 07:43:16;;;;;;;486.10;98.27;;;-1.00;93.40;;;;;;5015268;28;20290;-63
2021/01/19 07:45:54;;;;;;;822.07;126.97;;;-1.00;93.30;;;;;;5031239;28;20216;-63
2021/01/19 07:48:35;;;;;;;399.70;95.37;;;-1.10;93.20;;;;;;5010635;28;20220;-63
2021/01/19 07:51:15;;;;;;;507.83;99.47;;;-1.10;93.30;;;;;;5013953;28;20258;-63
2021/01/19 07:53:53;;;;;;;562.07;104.03;;;-1.10;93.40;;;;;;5015009;28;20287;-63
2021/01/19 07:56:23;;;;;;;291.90;83.73;;;-1.10;93.30;;;;;;5030019;28;20216;-63
2021/01/19 07:58:51;;;;;;;456.37;103.87;;;-1.10;93.30;;;;;;5015061;28;20400;-63
2021/01/19 08:01:36;;;;;;;343.73;91.17;;;-1.10;93.40;;;;;;5013665;28;20214;-63
2021/01/19 08:04:14;;;;;;;320.70;88.93;;;-1.00;93.50;;;;;;5014261;28;20674;-63
2021/01/19 08:06:44;;;;;;;410.53;100.17;;;-1.00;93.30;;;;;;5013059;28;20687;-63
2021/01/19 08:09:12;;;;;;;787.20;139.93;;;-0.90;93.40;;;;;;5014164;28;20616;-63
2021/01/19 08:11:40;;;;;;;386.57;92.20;;;-0.90;93.40;;;;;;5013904;28;20557;-63
2021/01/19 08:14:14;;;;;;;403.03;88.70;;;-0.80;93.40;;;;;;5014321;28;20202;-63
2021/01/19 08:16:48;;;;;;;447.73;97.37;;;-0.80;93.30;;;;;;5014166;28;20690;-63
2021/01/19 08:19:16;;;;;;;457.10;96.87;;;-0.80;93.20;;;;;;5012606;28;20218;-63
2021/01/19 08:21:55;;;;;;;333.80;98.23;;;-0.90;93.10;;;;;;5014211;28;20640;-63
2021/01/19 08:24:23;;;;;;;252.50;91.70;;;-0.90;93.20;;;;;;5012013;28;20218;-63
2021/01/19 08:26:51;;;;;;;324.97;94.83;;;-0.90;93.30;;;;;;5029336;28;20223;-63
2021/01/19 08:29:29;;;;;;;430.80;95.73;;;-0.80;93.40;;;;;;5013685;28;20286;-63
2021/01/19 08:31:59;;;;;;;474.50;106.37;;;-0.70;93.40;;;;;;5014269;28;20236;-63
2021/01/19 08:34:27;;;;;;;283.63;85.17;;;-0.70;93.30;;;;;;5014327;28;20210;-63
2021/01/19 08:36:55;;;;;;;271.37;86.40;;;-0.70;93.10;;;;;;5014109;28;20218;-63
2021/01/19 08:39:23;;;;;;;483.50;100.10;;;-0.70;93.20;;;;;;5013701;28;20259;-63
2021/01/19 08:41:52;;;;;;;342.80;92.57;;;-0.60;93.20;;;;;;5012332;28;20567;-63
2021/01/19 08:44:39;;;;;;;577.40;108.50;;;-0.60;93.00;;;;;;5012869;28;20219;-63
2021/01/19 08:47:06;;;;;;;219.30;84.67;;;-0.60;93.10;;;;;;5013988;28;20224;-63
2021/01/19 08:49:37;;;;;;;240.93;86.73;;;-0.60;93.00;;;;;;5009415;28;20212;-63
2021/01/19 08:52:05;;;;;;;311.73;83.63;;;-0.60;93.00;;;;;;5013222;28;20735;-64
2021/01/19 08:54:33;;;;;;;426.40;84.07;;;-0.50;93.00;;;;;;5013517;28;20230;-64
2021/01/19 08:56:59;;;;;;;416.00;95.23;;;-0.50;92.90;;;;;;5023474;28;20666;-63
2021/01/19 08:59:50;;;;;;;304.57;86.57;;;-0.50;92.80;;;;;;5013519;28;20313;-64
2021/01/19 09:02:17;;;;;;;334.93;93.80;;;-0.50;92.80;;;;;;5011429;28;20207;-63
2021/01/19 09:04:45;;;;;;;537.73;115.80;;;-0.40;92.90;;;;;;5013039;28;20208;-64
2021/01/19 09:07:11;;;;;;;315.43;90.40;;;-0.30;92.80;;;;;;5012748;28;20288;-63
2021/01/19 09:09:46;;;;;;;528.57;100.37;;;-0.30;92.80;;;;;;5012812;28;20216;-63
2021/01/19 09:12:17;;;;;;;510.83;108.00;;;-0.20;92.70;;;;;;5012083;28;20741;-63
2021/01/19 09:14:50;;;;;;;679.40;120.13;;;-0.20;92.50;;;;;;5012880;28;20715;-63
2021/01/19 09:17:24;;;;;;;490.53;101.97;;;-0.20;92.40;;;;;;5010843;28;20338;-63
2021/01/19 09:20:05;;;;;;;438.80;98.70;;;-0.30;92.40;;;;;;5011734;28;20584;-63
2021/01/19 09:22:34;;;;;;;347.77;98.00;;;-0.40;92.50;;;;;;5028994;28;20282;-63
2021/01/19 09:25:01;;;;;;;385.17;100.07;;;-0.30;92.70;;;;;;5012921;28;20204;-63
2021/01/19 09:27:28;;;;;;;352.50;97.90;;;-0.30;92.70;;;;;;5014232;28;20235;-63
2021/01/19 09:30:15;;;;;;;354.33;96.60;;;-0.20;92.70;;;;;;5028626;28;20295;-63
2021/01/19 09:32:43;;;;;;;288.93;90.23;;;-0.10;92.60;;;;;;5013567;28;20208;-63
2021/01/19 09:35:13;;;;;;;234.53;85.37;;;0.10;92.60;;;;;;5011312;28;20212;-63
2021/01/19 09:37:41;;;;;;;245.10;88.23;;;0.30;92.60;;;;;;5028776;28;20664;-63
2021/01/19 09:40:09;;;;;;;380.50;99.47;;;0.30;92.40;;;;;;5028519;28;20303;-63
2021/01/19 09:42:39;;;;;;;437.37;98.87;;;0.40;92.30;;;;;;5013109;28;20211;-63
2021/01/19 09:45:09;;;;;;;443.50;106.67;;;0.50;92.10;;;;;;5012956;28;20216;-63
2021/01/19 09:47:38;;;;;;;298.37;91.20;;;0.40;92.00;;;;;;5007000;28;20259;-63
2021/01/19 09:50:08;;;;;;;372.10;87.97;;;0.30;92.00;;;;;;5028102;28;20270;-64
2021/01/19 09:52:34;;;;;;;284.73;90.67;;;0.30;92.10;;;;;;5010610;28;20218;-63
2021/01/19 09:55:09;;;;;;;451.13;92.40;;;0.20;92.00;;;;;;5012902;28;20555;-63
2021/01/19 09:57:36;;;;;;;549.23;111.27;;;0.30;92.20;;;;;;5026490;28;20215;-63
2021/01/19 10:00:09;;;;;;;466.60;103.77;;;0.30;92.10;;;;;;5008774;28;20219;-63
2021/01/19 10:02:38;;;;;;;317.53;91.93;;;0.30;92.10;;;;;;5007246;28;20277;-63
2021/01/19 10:05:07;;;;;;;422.30;103.53;;;0.40;92.20;;;;;;5009707;28;20258;-63
2021/01/19 10:07:34;;;;;;;449.23;101.93;;;0.40;92.20;;;;;;5012272;28;20231;-64
2021/01/19 10:10:14;;;;;;;436.47;104.27;;;0.40;92.20;;;;;;5011485;28;20200;-63
2021/01/19 10:12:42;;;;;;;374.20;102.97;;;0.50;92.10;;;;;;5012303;28;20221;-63
2021/01/19 10:15:11;;;;;;;428.37;100.73;;;0.40;92.00;;;;;;5012164;28;20200;-63
2021/01/19 10:17:38;;;;;;;259.50;92.63;;;0.50;92.10;;;;;;5012095;28;20215;-63
2021/01/19 10:20:34;;;;;;;758.90;128.43;;;0.50;92.20;;;;;;5011150;28;20212;-63
2021/01/19 10:23:01;;;;;;;720.40;124.80;;;0.60;92.00;;;;;;5010175;28;20665;-63
2021/01/19 10:25:38;;;;;;;455.17;97.87;;;0.60;91.80;;;;;;5011688;28;20204;-64
2021/01/19 10:28:05;;;;;;;284.43;88.97;;;0.50;91.70;;;;;;5009646;28;20232;-63
2021/01/19 10:30:37;;;;;;;373.37;99.53;;;0.50;91.80;;;;;;5012107;28;20223;-63
2021/01/19 10:33:03;;;;;;;712.73;122.10;;;0.60;92.00;;;;;;5011129;28;20561;-64
2021/01/19 10:35:34;;;;;;;350.23;93.23;;;0.70;91.90;;;;;;5011967;28;20231;-64
2021/01/19 10:38:08;;;;;;;742.10;125.03;;;0.70;91.90;;;;;;5012140;28;20239;-64
2021/01/19 10:40:36;;;;;;;839.83;146.70;;;0.80;91.90;;;;;;5006163;28;20298;-64
2021/01/19 10:43:11;;;;;;;913.33;149.73;;;0.80;91.70;;;;;;5011979;28;20714;-64
2021/01/19 10:45:42;;;;;;;827.03;134.73;;;0.80;91.70;;;;;;5011979;28;20222;-64
2021/01/19 10:48:20;;;;;;;1050.50;166.30;;;0.80;91.60;;;;;;5012526;28;20234;-64
2021/01/19 10:50:47;;;;;;;766.23;132.87;;;0.70;91.50;;;;;;5011707;28;20246;-64
2021/01/19 10:53:14;;;;;;;749.17;129.90;;;0.70;91.60;;;;;;5010608;28;20294;-64
2021/01/19 10:55:41;;;;;;;422.37;95.73;;;0.70;91.70;;;;;;5011673;28;20640;-64
2021/01/19 10:58:07;;;;;;;591.07;119.97;;;0.70;91.70;;;;;;5011179;28;20539;-64
2021/01/19 11:00:34;;;;;;;498.93;109.13;;;0.80;91.80;;;;;;5012129;28;20227;-64
2021/01/19 11:03:02;;;;;;;511.57;108.37;;;0.80;91.70;;;;;;5010389;28;20219;-64
2021/01/19 11:05:29;;;;;;;968.20;159.33;;;0.80;91.70;;;;;;5005204;28;20235;-64
2021/01/19 11:07:56;;;;;;;535.60;110.93;;;0.80;91.80;;;;;;5009086;28;20707;-64
2021/01/19 11:10:26;;;;;;;1004.70;169.93;;;0.80;91.90;;;;;;5027180;28;20703;-64
2021/01/19 11:12:54;;;;;;;442.23;115.83;;;0.90;92.00;;;;;;5011764;28;20281;-64
2021/01/19 11:15:22;;;;;;;480.23;103.03;;;1.00;92.00;;;;;;5026926;28;20223;-64
2021/01/19 11:17:50;;;;;;;527.07;115.90;;;1.00;92.00;;;;;;5012471;28;20246;-64
2021/01/19 11:20:17;;;;;;;550.77;107.13;;;1.00;92.10;;;;;;5009023;28;20218;-64
2021/01/19 11:22:45;;;;;;;522.57;107.40;;;1.00;91.70;;;;;;5014370;28;20600;-64
2021/01/19 11:25:13;;;;;;;823.87;143.93;;;0.90;91.80;;;;;;5030470;28;20207;-64
2021/01/19 11:27:40;;;;;;;772.53;135.97;;;0.90;91.90;;;;;;5030151;28;20246;-64
2021/01/19 11:30:08;;;;;;;750.07;144.67;;;0.90;91.90;;;;;;5012779;28;20210;-64
2021/01/19 11:32:35;;;;;;;1034.43;174.33;;;1.00;91.90;;;;;;5015436;28;20230;-64
2021/01/19 11:35:03;;;;;;;1084.10;161.63;;;1.00;91.90;;;;;;5031090;28;20212;-64
2021/01/19 11:37:30;;;;;;;946.50;155.53;;;1.00;91.90;;;;;;5007740;28;20227;-64
2021/01/19 11:39:57;;;;;;;943.37;148.63;;;1.00;91.80;;;;;;5011681;28;20212;-64
2021/01/19 11:42:23;;;;;;;442.17;102.03;;;1.00;91.80;;;;;;5014668;28;20211;-64
2021/01/19 11:44:51;;;;;;;466.60;104.17;;;1.00;91.90;;;;;;5015223;28;20280;-64
2021/01/19 11:47:17;;;;;;;669.30;119.77;;;0.90;91.90;;;;;;5014876;28;20231;-64
2021/01/19 11:49:49;;;;;;;1042.80;157.17;;;1.00;92.10;;;;;;5014796;28;20624;-64
2021/01/19 11:52:20;;;;;;;1355.60;195.83;;;1.00;91.90;;;;;;5008892;28;20208;-64
2021/01/19 11:54:47;;;;;;;981.90;149.07;;;1.00;91.80;;;;;;5014563;28;20585;-64
2021/01/19 11:57:14;;;;;;;715.50;129.17;;;0.90;91.90;;;;;;5014847;28;20215;-64
2021/01/19 11:59:41;;;;;;;937.63;151.03;;;0.90;92.10;;;;;;5030409;28;20276;-64
2021/01/19 12:02:08;;;;;;;654.20;128.20;;;0.90;92.10;;;;;;5015332;28;20208;-64
2021/01/19 12:04:36;;;;;;;419.13;109.30;;;0.90;92.20;;;;;;5015341;28;20620;-64
2021/01/19 12:07:05;;;;;;;1138.10;180.03;;;0.90;92.20;;;;;;5011666;28;20240;-64
2021/01/19 12:09:32;;;;;;;574.90;130.00;;;0.90;92.20;;;;;;5028352;28;20247;-64
2021/01/19 12:11:59;;;;;;;1470.27;216.17;;;1.00;92.30;;;;;;5013296;28;20210;-64
2021/01/19 12:14:25;;;;;;;1379.73;209.03;;;1.00;92.30;;;;;;5030448;28;20270;-64
2021/01/19 12:16:56;;;;;;;595.40;136.03;;;1.00;92.20;;;;;;5014302;28;20216;-64
2021/01/19 12:19:27;;;;;;;1296.20;192.40;;;1.00;92.30;;;;;;5014485;28;20310;-64
2021/01/19 12:21:55;;;;;;;696.37;153.53;;;1.00;92.40;;;;;;5014712;28;20225;-64
2021/01/19 12:24:23;;;;;;;713.60;154.77;;;1.00;92.30;;;;;;5029405;28;20628;-64
2021/01/19 12:26:54;;;;;;;626.17;143.27;;;1.00;92.40;;;;;;5013870;28;20246;-64
2021/01/19 12:29:22;;;;;;;1999.90;310.73;;;1.10;92.60;;;;;;5013565;28;20702;-64
2021/01/19 12:31:49;;;;;;;376.97;125.37;;;1.20;92.60;;;;;;5013266;28;20223;-64